createdAt,value
2023-03-12T00:01:52.030Z,11.68
2023-03-12T00:04:54.455Z,13.63
2023-03-12T00:07:59.862Z,10.68
2023-03-12T00:11:06.814Z,10.32
2023-03-12T00:14:11.355Z,10.60
2023-03-12T00:17:14.033Z,9.63
2023-03-12T00:20:16.821Z,8.52
2023-03-12T00:23:19.073Z,12.98
2023-03-12T00:26:22.232Z,8.63
2023-03-12T00:29:24.981Z,7.97
2023-03-12T00:32:28.030Z,8.93
2023-03-12T00:35:30.581Z,9.32
2023-03-12T00:38:33.014Z,8.80
2023-03-12T00:41:35.389Z,12.07
2023-03-12T00:44:37.843Z,9.52
2023-03-12T00:47:40.496Z,15.02
2023-03-12T00:50:43.792Z,10.20
2023-03-12T00:53:46.435Z,10.35
2023-03-12T00:56:49.176Z,10.73
2023-03-12T00:59:51.513Z,14.10
2023-03-12T01:02:53.959Z,9.40
2023-03-12T01:05:56.396Z,10.52
2023-03-12T01:08:58.882Z,11.50
2023-03-12T01:12:01.194Z,8.88
2023-03-12T01:15:04.903Z,7.80
2023-03-12T01:18:07.422Z,7.85
2023-03-12T01:21:10.031Z,7.55
2023-03-12T01:24:12.660Z,8.40
2023-03-12T01:27:15.263Z,6.25
2023-03-12T01:30:17.849Z,11.73
2023-03-12T01:33:23.038Z,9.10
2023-03-12T01:36:28.116Z,8.07
2023-03-12T01:39:30.777Z,11.18
2023-03-12T01:42:33.842Z,6.97
2023-03-12T01:45:51.584Z,8.10
2023-03-12T01:49:23.022Z,9.32
2023-03-12T01:52:29.576Z,7.40
2023-03-12T01:55:32.495Z,10.88
2023-03-12T01:58:37.050Z,12.00
2023-03-12T02:01:40.215Z,9.23
2023-03-12T02:04:44.408Z,12.40
2023-03-12T02:07:47.437Z,10.75
2023-03-12T02:10:50.028Z,7.88
2023-03-12T02:13:52.684Z,8.57
2023-03-12T02:16:56.951Z,8.43
2023-03-12T02:20:16.313Z,10.38
2023-03-12T02:23:32.976Z,9.55
2023-03-12T02:26:37.902Z,9.57
2023-03-12T02:29:42.209Z,11.45
2023-03-12T02:32:46.371Z,7.68
2023-03-12T02:35:49.116Z,7.13
2023-03-12T02:38:53.462Z,8.95
2023-03-12T02:41:57.970Z,12.75
2023-03-12T02:45:01.390Z,10.50
2023-03-12T02:48:04.712Z,10.38
2023-03-12T02:51:07.214Z,8.57
2023-03-12T02:54:10.219Z,12.13
2023-03-12T02:57:12.654Z,8.48
2023-03-12T03:00:16.393Z,9.93
2023-03-12T03:03:23.366Z,8.70
2023-03-12T03:06:25.854Z,9.70
2023-03-12T03:09:29.755Z,9.70
2023-03-12T03:12:33.033Z,8.20
2023-03-12T03:18:38.804Z,9.73
2023-03-12T03:21:41.535Z,8.70
2023-03-12T03:24:44.324Z,6.20
2023-03-12T03:27:46.873Z,8.88
2023-03-12T03:30:49.475Z,9.50
2023-03-12T03:33:52.260Z,9.38
2023-03-12T03:36:54.736Z,8.20
2023-03-12T03:39:58.567Z,6.90
2023-03-12T03:43:01.174Z,5.85
2023-03-12T03:46:05.935Z,7.80
2023-03-12T03:49:12.332Z,8.88
2023-03-12T03:52:16.717Z,6.68
2023-03-12T03:55:19.502Z,7.93
2023-03-12T03:58:22.094Z,4.80
2023-03-12T04:01:24.833Z,7.70
2023-03-12T04:04:27.698Z,7.80
2023-03-12T04:07:30.012Z,6.50
2023-03-12T04:10:32.440Z,7.20
2023-03-12T04:13:35.416Z,8.43
2023-03-12T04:16:37.956Z,11.32
2023-03-12T04:19:40.998Z,6.35
2023-03-12T04:22:43.399Z,6.25
2023-03-12T04:25:46.632Z,5.05
2023-03-12T04:28:49.037Z,4.35
2023-03-12T04:31:51.428Z,5.55
2023-03-12T04:34:54.029Z,11.38
2023-03-12T04:37:56.720Z,7.22
2023-03-12T04:41:05.621Z,3.67
2023-03-12T04:44:12.261Z,4.88
2023-03-12T04:47:15.655Z,4.80
2023-03-12T04:50:18.577Z,6.57
2023-03-12T04:53:21.392Z,3.65
2023-03-12T04:56:25.078Z,4.28
2023-03-12T04:59:27.471Z,5.30
2023-03-12T05:02:29.945Z,4.95
2023-03-12T05:05:32.553Z,3.05
2023-03-12T05:08:35.023Z,5.45
2023-03-12T05:11:39.842Z,5.35
2023-03-12T05:14:44.977Z,7.82
2023-03-12T05:17:47.530Z,8.65
2023-03-12T05:21:04.825Z,6.80
2023-03-12T05:24:07.640Z,5.72
2023-03-12T05:27:10.404Z,3.58
2023-03-12T05:30:13.202Z,2.20
2023-03-12T05:33:15.801Z,2.65
2023-03-12T05:36:18.333Z,6.38
2023-03-12T05:39:22.331Z,4.75
2023-03-12T05:42:25.914Z,5.28
2023-03-12T05:45:28.521Z,3.15
2023-03-12T05:48:33.742Z,6.03
2023-03-12T05:51:36.925Z,2.53
2023-03-12T05:54:39.303Z,4.95
2023-03-12T05:57:42.053Z,3.72
2023-03-12T06:00:45.290Z,4.00
2023-03-12T06:03:49.208Z,6.60
2023-03-12T06:06:51.642Z,4.93
2023-03-12T06:09:54.033Z,3.45
2023-03-12T06:12:56.457Z,3.33
2023-03-12T06:16:06.754Z,6.32
2023-03-12T06:19:14.337Z,5.20
2023-03-12T06:22:18.731Z,7.10
2023-03-12T06:25:21.524Z,3.33
2023-03-12T06:28:23.899Z,3.97
2023-03-12T06:31:27.129Z,5.00
2023-03-12T06:34:29.530Z,6.40
2023-03-12T06:37:32.577Z,5.00
2023-03-12T06:40:34.946Z,2.43
2023-03-12T06:43:38.605Z,4.40
2023-03-12T06:46:42.727Z,4.32
2023-03-12T06:49:45.465Z,6.72
2023-03-12T06:52:47.797Z,3.90
2023-03-12T06:55:51.782Z,5.32
2023-03-12T06:58:54.293Z,6.60
2023-03-12T07:01:57.152Z,3.97
2023-03-12T07:04:59.762Z,5.17
2023-03-12T07:08:02.221Z,6.05
2023-03-12T07:11:04.913Z,8.23
2023-03-12T07:14:07.312Z,9.32
2023-03-12T07:17:09.847Z,3.25
2023-03-12T07:20:12.992Z,7.03
2023-03-12T07:23:15.648Z,7.60
2023-03-12T07:26:18.488Z,3.38
2023-03-12T07:29:20.998Z,22.60
2023-03-12T07:32:23.461Z,6.25
2023-03-12T07:35:26.282Z,9.18
2023-03-12T07:38:28.979Z,6.17
2023-03-12T07:41:31.841Z,5.28
2023-03-12T07:44:36.887Z,14.98
2023-03-12T07:47:39.529Z,9.60
2023-03-12T07:50:42.110Z,10.52
2023-03-12T07:53:44.503Z,20.35
2023-03-12T07:56:46.928Z,18.20
2023-03-12T07:59:49.386Z,21.90
2023-03-12T08:02:52.548Z,11.00
2023-03-12T08:06:00.259Z,12.50
2023-03-12T08:09:02.704Z,23.90
2023-03-12T08:12:06.474Z,11.05
2023-03-12T08:15:09.576Z,8.38
2023-03-12T08:18:11.877Z,9.32
2023-03-12T08:21:16.493Z,31.15
2023-03-12T08:24:18.998Z,5.15
2023-03-12T08:27:21.414Z,10.25
2023-03-12T08:30:23.870Z,15.88
2023-03-12T08:33:26.890Z,11.27
2023-03-12T08:36:29.417Z,9.63
2023-03-12T08:39:32.061Z,5.65
2023-03-12T08:42:34.468Z,13.48
2023-03-12T08:45:37.396Z,9.98
2023-03-12T08:48:41.081Z,7.27
2023-03-12T08:51:43.619Z,6.00
2023-03-12T08:54:46.078Z,8.23
2023-03-12T08:57:48.549Z,9.73
2023-03-12T09:00:52.017Z,5.78
2023-03-12T09:03:55.473Z,3.53
2023-03-12T09:06:58.079Z,7.45
2023-03-12T09:10:00.468Z,6.10
2023-03-12T09:13:03.663Z,5.80
2023-03-12T09:16:08.038Z,5.23
2023-03-12T09:19:11.600Z,5.43
2023-03-12T09:22:15.300Z,7.57
2023-03-12T09:25:19.728Z,14.20
2023-03-12T09:28:22.959Z,6.15
2023-03-12T09:31:27.124Z,11.70
2023-03-12T09:34:30.464Z,8.48
2023-03-12T09:37:32.901Z,8.23
2023-03-12T09:40:41.545Z,4.53
2023-03-12T09:43:53.057Z,3.40
2023-03-12T09:46:58.999Z,6.68
2023-03-12T09:50:09.160Z,4.90
2023-03-12T09:53:17.884Z,6.97
2023-03-12T09:56:25.120Z,8.68
2023-03-12T09:59:29.123Z,4.57
2023-03-12T10:02:40.633Z,4.22
2023-03-12T10:05:48.226Z,9.27
2023-03-12T10:09:20.520Z,5.55
2023-03-12T10:12:46.224Z,13.80
2023-03-12T10:16:07.919Z,6.57
2023-03-12T10:19:20.769Z,6.05
2023-03-12T10:22:33.317Z,3.95
2023-03-12T10:25:53.648Z,6.03
2023-03-12T10:29:21.548Z,6.75
2023-03-12T10:32:43.140Z,6.05
2023-03-12T10:35:45.699Z,5.10
2023-03-12T10:38:51.422Z,5.95
2023-03-12T10:41:53.935Z,2.55
2023-03-12T10:45:16.127Z,3.40
2023-03-12T10:48:23.791Z,3.70
2023-03-12T10:51:26.269Z,3.55
2023-03-12T10:54:40.911Z,1.60
2023-03-12T10:57:43.399Z,5.43
2023-03-12T11:00:57.048Z,2.53
2023-03-12T11:04:18.083Z,2.40
2023-03-12T11:07:26.222Z,3.60
2023-03-12T11:10:44.687Z,5.65
2023-03-12T11:13:47.205Z,2.45
2023-03-12T11:16:50.868Z,2.60
2023-03-12T11:19:54.060Z,2.03
2023-03-12T11:22:57.052Z,2.90
2023-03-12T11:26:18.743Z,3.25
2023-03-12T11:29:29.804Z,3.83
2023-03-12T11:32:36.300Z,4.60
2023-03-12T11:36:02.208Z,1.35
2023-03-12T11:39:20.753Z,3.72
2023-03-12T11:42:58.608Z,3.20
2023-03-12T11:46:28.685Z,4.13
2023-03-12T11:49:51.970Z,8.98
2023-03-12T11:53:45.529Z,5.70
2023-03-12T11:56:55.034Z,6.28
2023-03-12T12:00:12.483Z,4.63
2023-03-12T12:03:26.750Z,5.72
2023-03-12T12:09:49.464Z,4.07
2023-03-12T12:13:07.161Z,3.90
2023-03-12T12:16:36.914Z,3.17
2023-03-12T12:19:56.002Z,2.97
2023-03-12T12:23:10.931Z,4.30
2023-03-12T12:26:14.667Z,3.90
2023-03-12T12:29:50.257Z,4.00
2023-03-12T12:33:01.051Z,4.10
2023-03-12T12:36:03.833Z,5.45
2023-03-12T12:39:20.145Z,1.92
2023-03-12T12:42:27.054Z,4.13
2023-03-12T12:45:31.146Z,2.47
2023-03-12T12:48:39.289Z,3.30
2023-03-12T12:51:45.179Z,1.88
2023-03-12T12:55:07.947Z,3.38
2023-03-12T12:58:18.343Z,4.68
2023-03-12T13:01:21.430Z,2.75
2023-03-12T13:04:31.796Z,4.07
2023-03-12T13:07:34.857Z,5.85
2023-03-12T13:10:37.643Z,3.47
2023-03-12T13:13:40.164Z,5.18
2023-03-12T13:16:47.100Z,3.25
2023-03-12T13:20:00.937Z,3.97
2023-03-12T13:23:13.686Z,2.47
2023-03-12T13:26:52.132Z,3.15
2023-03-12T13:29:58.097Z,4.60
2023-03-12T13:33:03.556Z,6.45
2023-03-12T13:36:17.960Z,4.88
2023-03-12T13:42:39.218Z,4.57
2023-03-12T13:46:07.803Z,4.18
2023-03-12T13:49:15.121Z,5.38
2023-03-12T13:52:31.176Z,6.18
2023-03-12T13:55:39.436Z,3.58
2023-03-12T13:58:47.129Z,3.38
2023-03-12T14:01:52.098Z,3.25
2023-03-12T14:04:57.757Z,6.38
2023-03-12T14:08:10.963Z,3.22
2023-03-12T14:11:25.367Z,2.45
2023-03-12T14:14:30.397Z,4.72
2023-03-12T14:17:34.429Z,3.35
2023-03-12T14:20:39.216Z,10.25
2023-03-12T14:23:56.948Z,6.30
2023-03-12T14:27:01.404Z,5.57
2023-03-12T14:30:24.179Z,5.90
2023-03-12T14:33:29.380Z,3.45
2023-03-12T14:37:00.916Z,4.88
2023-03-12T14:40:19.340Z,3.38
2023-03-12T14:43:27.745Z,12.93
2023-03-12T14:46:30.241Z,3.83
2023-03-12T14:49:32.712Z,6.00
2023-03-12T14:52:35.308Z,5.93
2023-03-12T14:55:41.387Z,6.18
2023-03-12T14:58:47.477Z,5.93
2023-03-12T15:01:49.909Z,18.20
2023-03-12T15:04:56.063Z,8.20
2023-03-12T15:08:03.025Z,11.65
2023-03-12T15:11:05.999Z,5.68
2023-03-12T15:14:14.509Z,4.55
2023-03-12T15:17:21.303Z,4.78
2023-03-12T15:20:25.150Z,5.68
2023-03-12T15:23:29.226Z,5.07
2023-03-12T15:29:42.038Z,7.10
2023-03-12T15:33:08.264Z,6.63
2023-03-12T15:36:21.293Z,9.55
2023-03-12T15:39:34.167Z,6.30
2023-03-12T15:42:40.229Z,4.55
2023-03-12T15:45:42.610Z,7.88
2023-03-12T15:48:50.506Z,5.85
2023-03-12T15:52:01.218Z,9.48
2023-03-12T15:55:15.653Z,4.88
2023-03-12T15:58:35.533Z,7.28
2023-03-12T16:01:53.010Z,6.53
2023-03-12T16:04:55.562Z,7.30
2023-03-12T16:07:58.610Z,5.38
2023-03-12T16:11:01.792Z,5.32
2023-03-12T16:14:24.692Z,6.82
2023-03-12T16:17:27.035Z,9.63
2023-03-12T16:20:29.939Z,5.97
2023-03-12T16:23:32.627Z,5.82
2023-03-12T16:26:47.280Z,9.02
2023-03-12T16:29:50.097Z,8.90
2023-03-12T16:32:52.560Z,7.03
2023-03-12T16:35:55.900Z,6.63
2023-03-12T16:38:58.357Z,3.90
2023-03-12T16:42:02.129Z,7.40
2023-03-12T16:45:05.040Z,8.90
2023-03-12T16:48:07.466Z,8.75
2023-03-12T16:51:14.858Z,11.05
2023-03-12T16:54:17.197Z,12.43
2023-03-12T16:57:40.883Z,9.55
2023-03-12T17:00:43.512Z,10.27
2023-03-12T17:03:49.689Z,9.15
2023-03-12T17:06:52.183Z,10.70
2023-03-12T17:09:55.241Z,11.82
2023-03-12T17:12:57.855Z,12.83
2023-03-12T17:16:00.387Z,13.20
2023-03-12T17:19:02.894Z,13.45
2023-03-12T17:22:05.336Z,15.43
2023-03-12T17:25:09.607Z,14.63
2023-03-12T17:28:12.609Z,24.80
2023-03-12T17:31:14.970Z,21.73
2023-03-12T17:34:18.080Z,20.05
2023-03-12T17:37:20.446Z,38.37
2023-03-12T17:40:23.414Z,41.35
2023-03-12T17:43:25.965Z,26.73
2023-03-12T17:46:29.811Z,41.08
2023-03-12T17:49:32.425Z,28.90
2023-03-12T17:52:35.092Z,26.00
2023-03-12T17:55:37.630Z,30.65
2023-03-12T17:58:40.642Z,28.58
2023-03-12T18:01:43.062Z,38.80
2023-03-12T18:04:45.439Z,31.20
2023-03-12T18:07:48.824Z,19.85
2023-03-12T18:10:51.478Z,29.10
2023-03-12T18:13:54.143Z,53.58
2023-03-12T18:16:56.568Z,37.75
2023-03-12T18:19:58.980Z,48.75
2023-03-12T18:23:01.435Z,52.28
2023-03-12T18:26:04.837Z,53.58
2023-03-12T18:29:07.248Z,40.47
2023-03-12T18:32:09.820Z,54.65
2023-03-12T18:35:12.170Z,60.95
2023-03-12T18:38:14.708Z,177.02
2023-03-12T18:41:17.276Z,127.30
2023-03-12T18:44:19.696Z,80.47
2023-03-12T18:47:22.110Z,74.70
2023-03-12T18:50:24.529Z,51.42
2023-03-12T18:53:26.894Z,58.22
2023-03-12T18:56:29.875Z,77.28
2023-03-12T18:59:32.570Z,44.70
2023-03-12T19:02:34.957Z,28.83
2023-03-12T19:05:37.379Z,26.50
2023-03-12T19:08:40.258Z,24.45
2023-03-12T19:11:42.602Z,22.58
2023-03-12T19:14:45.093Z,17.73
2023-03-12T19:17:47.531Z,28.67
2023-03-12T19:20:49.974Z,16.45
2023-03-12T19:23:53.230Z,21.98
2023-03-12T19:26:56.148Z,42.10
2023-03-12T19:29:58.676Z,43.60
2023-03-12T19:33:01.257Z,39.55
2023-03-12T19:36:04.242Z,35.60
2023-03-12T19:39:15.174Z,25.75
2023-03-12T19:42:23.186Z,19.52
2023-03-12T19:45:26.061Z,24.02
2023-03-12T19:48:28.783Z,23.85
2023-03-12T19:51:32.018Z,21.35
2023-03-12T19:54:34.609Z,25.17
2023-03-12T19:57:37.041Z,29.10
2023-03-12T20:00:39.586Z,24.77
2023-03-12T20:03:43.825Z,47.75
2023-03-12T20:06:46.424Z,45.22
2023-03-12T20:09:48.804Z,46.90
2023-03-12T20:12:51.119Z,54.78
2023-03-12T20:15:53.705Z,42.33
2023-03-12T20:18:55.967Z,74.60
2023-03-12T20:21:58.355Z,94.88
2023-03-12T20:25:01.062Z,105.47
2023-03-12T20:28:03.744Z,90.55
2023-03-12T20:31:10.459Z,64.50
2023-03-12T20:34:13.046Z,62.75
2023-03-12T20:37:15.362Z,126.22
2023-03-12T20:40:18.072Z,42.53
2023-03-12T20:43:20.317Z,49.08
2023-03-12T20:46:23.210Z,42.42
2023-03-12T20:49:25.835Z,43.08
2023-03-12T20:52:28.316Z,47.03
2023-03-12T20:55:30.841Z,26.05
2023-03-12T20:58:33.441Z,29.20
2023-03-12T21:01:36.180Z,34.45
2023-03-12T21:04:38.850Z,33.08
2023-03-12T21:07:41.451Z,35.15
2023-03-12T21:10:43.723Z,36.45
2023-03-12T21:13:46.306Z,25.02
2023-03-12T21:16:49.300Z,30.23
2023-03-12T21:19:51.669Z,18.37
2023-03-12T21:22:54.286Z,28.90
2023-03-12T21:26:00.960Z,30.70
2023-03-12T21:29:03.608Z,32.90
2023-03-12T21:32:06.225Z,35.60
2023-03-12T21:35:09.826Z,45.05
2023-03-12T21:38:12.895Z,42.72
2023-03-12T21:41:19.150Z,31.57
2023-03-12T21:44:21.674Z,40.60
2023-03-12T21:47:24.439Z,35.67
2023-03-12T21:50:26.938Z,32.15
2023-03-12T21:53:29.627Z,31.98
2023-03-12T21:56:32.294Z,45.17
2023-03-12T21:59:34.648Z,28.05
2023-03-12T22:02:36.980Z,33.50
2023-03-12T22:05:39.415Z,33.10
2023-03-12T22:08:42.545Z,32.88
2023-03-12T22:11:45.496Z,24.80
2023-03-12T22:14:47.925Z,27.55
2023-03-12T22:17:51.134Z,29.85
2023-03-12T22:20:54.776Z,26.05
2023-03-12T22:23:58.740Z,29.48
2023-03-12T22:27:03.395Z,30.27
2023-03-12T22:30:06.332Z,29.83
2023-03-12T22:33:08.994Z,26.77
2023-03-12T22:36:13.256Z,32.65
2023-03-12T22:39:17.502Z,28.77
2023-03-12T22:42:20.017Z,29.70
2023-03-12T22:45:23.201Z,26.42
2023-03-12T22:48:25.666Z,21.67
2023-03-12T22:51:30.138Z,22.95
2023-03-12T22:54:32.408Z,24.58
2023-03-12T22:57:36.210Z,26.88
2023-03-12T23:00:38.624Z,24.95
2023-03-12T23:03:43.068Z,27.45
2023-03-12T23:06:45.510Z,27.13
2023-03-12T23:09:48.286Z,28.23
2023-03-12T23:12:51.083Z,25.58
2023-03-12T23:15:54.165Z,28.02
2023-03-12T23:18:56.761Z,22.27
2023-03-12T23:21:59.360Z,28.85
2023-03-12T23:25:01.694Z,22.60
2023-03-12T23:28:05.344Z,22.92
2023-03-12T23:31:09.032Z,20.08
2023-03-12T23:34:11.397Z,16.00
2023-03-12T23:37:14.445Z,21.23
2023-03-12T23:40:17.299Z,17.05
2023-03-12T23:43:19.648Z,15.05
2023-03-12T23:46:22.281Z,17.02
2023-03-12T23:49:24.697Z,14.77
2023-03-12T23:52:27.708Z,15.15
2023-03-12T23:55:30.158Z,15.97
2023-03-12T23:58:32.645Z,14.60
